Time;durP1;ratioP1;P1;durP2;ratioP2;P2;SDS_P1;SDS_P2;PMS_P1;PMS_P2;Temp;Humidity;BMP_temperature;BMP_pressure;BME280_temperature;BME280_humidity;BME280_pressure;Samples;Min_cycle;Max_cycle;Signal;HPM_P1;HPM_P2
2023/08/09 00:00:19;;;;;;;47.30;32.45;;;12.10;99.90;;;;;;4961382;28;20512;-77
2023/08/09 00:02:45;;;;;;;81.22;41.92;;;12.10;99.90;;;;;;4972649;28;20077;-78
2023/08/09 00:05:11;;;;;;;48.42;35.45;;;12.20;99.90;;;;;;4991917;28;20488;-78
2023/08/09 00:07:37;;;;;;;78.72;44.70;;;12.30;99.90;;;;;;4999092;28;20427;-78
2023/08/09 00:10:03;;;;;;;53.08;36.30;;;12.30;99.90;;;;;;4994215;28;20049;-77
2023/08/09 00:12:31;;;;;;;125.80;51.75;;;12.40;99.90;;;;;;4969796;28;20050;-78
2023/08/09 00:14:57;;;;;;;96.70;48.40;;;12.50;99.90;;;;;;4987111;28;20432;-78
2023/08/09 00:17:23;;;;;;;80.90;46.80;;;12.60;99.90;;;;;;4995480;28;20047;-78
2023/08/09 00:19:49;;;;;;;57.10;40.63;;;12.70;99.90;;;;;;4979427;28;20042;-78
2023/08/09 00:22:20;;;;;;;68.32;41.50;;;12.60;99.90;;;;;;4969562;28;20572;-78
2023/08/09 00:24:46;;;;;;;116.03;50.30;;;12.70;99.90;;;;;;4981261;28;20440;-77
2023/08/09 00:27:15;;;;;;;168.02;58.80;;;12.60;99.90;;;;;;4973312;28;20579;-78
2023/08/09 00:29:46;;;;;;;145.50;56.03;;;12.70;99.90;;;;;;4959958;28;20047;-79
2023/08/09 00:32:15;;;;;;;86.22;48.72;;;12.70;99.90;;;;;;4964231;28;20079;-78
2023/08/09 00:34:48;;;;;;;117.47;53.75;;;12.70;99.90;;;;;;4968539;28;20055;-77
2023/08/09 00:37:14;;;;;;;67.65;44.45;;;12.80;99.90;;;;;;4978153;28;20073;-78
2023/08/09 00:39:40;;;;;;;119.88;51.33;;;12.80;99.90;;;;;;4966084;28;20524;-78
2023/08/09 00:42:10;;;;;;;100.28;50.78;;;12.80;99.90;;;;;;4969149;28;20046;-78
2023/08/09 00:44:42;;;;;;;88.78;48.95;;;12.80;99.90;;;;;;4977647;28;20042;-78
2023/08/09 00:47:09;;;;;;;69.75;45.35;;;12.80;99.90;;;;;;4980903;28;20097;-77
2023/08/09 00:49:39;;;;;;;72.57;46.00;;;12.80;99.90;;;;;;4967293;28;20042;-78
2023/08/09 00:52:05;;;;;;;82.28;48.67;;;12.70;99.90;;;;;;4958214;28;20105;-77
2023/08/09 00:54:35;;;;;;;58.05;43.65;;;12.80;99.90;;;;;;4973816;28;20054;-78
2023/08/09 00:57:01;;;;;;;114.82;50.88;;;12.80;99.90;;;;;;4978173;28;20042;-78
2023/08/09 00:59:30;;;;;;;68.18;42.45;;;12.80;99.90;;;;;;4969014;28;20049;-78
2023/08/09 01:01:58;;;;;;;72.85;44.88;;;12.80;99.90;;;;;;4960289;28;20137;-77
2023/08/09 01:04:24;;;;;;;63.20;42.78;;;12.80;99.90;;;;;;4977271;28;20042;-78
2023/08/09 01:07:01;;;;;;;45.63;37.28;;;12.70;99.90;;;;;;4977179;28;20076;-77
2023/08/09 01:09:33;;;;;;;84.18;46.08;;;12.70;99.90;;;;;;4968933;28;20447;-77
2023/08/09 01:12:07;;;;;;;54.80;40.08;;;12.70;99.90;;;;;;4964410;28;20039;-78
2023/08/09 01:14:36;;;;;;;92.32;47.47;;;12.60;99.90;;;;;;4973594;28;20058;-78
2023/08/09 01:17:03;;;;;;;50.25;41.00;;;12.60;99.90;;;;;;4979238;28;20169;-78
2023/08/09 01:19:35;;;;;;;117.75;52.13;;;12.60;99.90;;;;;;4968967;28;20077;-78
2023/08/09 01:22:08;;;;;;;69.13;42.65;;;12.60;99.90;;;;;;4958771;28;20509;-78
2023/08/09 01:24:34;;;;;;;77.03;45.40;;;12.50;99.90;;;;;;4973434;28;20049;-77
2023/08/09 01:27:03;;;;;;;78.40;49.05;;;12.50;99.90;;;;;;4978813;28;20049;-77
2023/08/09 01:29:31;;;;;;;122.82;56.85;;;12.50;99.90;;;;;;4983419;28;20046;-78
2023/08/09 01:31:57;;;;;;;65.00;44.90;;;12.50;99.90;;;;;;4974817;28;20069;-77
2023/08/09 01:34:24;;;;;;;69.28;44.75;;;12.50;99.90;;;;;;4981101;28;20428;-77
2023/08/09 01:36:51;;;;;;;81.88;49.25;;;12.50;99.90;;;;;;4973420;28;20045;-78
2023/08/09 01:39:22;;;;;;;61.90;44.78;;;12.50;99.90;;;;;;4970146;28;20043;-77
2023/08/09 01:41:50;;;;;;;52.78;43.53;;;12.40;99.90;;;;;;4960245;28;20038;-78
2023/08/09 01:44:17;;;;;;;62.05;46.47;;;12.40;99.90;;;;;;4968005;28;20103;-78
2023/08/09 01:46:45;;;;;;;76.00;48.67;;;12.40;99.90;;;;;;4982831;28;20045;-77
2023/08/09 01:49:17;;;;;;;165.85;59.58;;;12.40;99.90;;;;;;4971314;28;20039;-78
2023/08/09 01:51:43;;;;;;;106.85;55.47;;;12.40;99.90;;;;;;4957051;28;20042;-77
2023/08/09 01:54:11;;;;;;;63.42;45.58;;;12.40;99.90;;;;;;4971527;28;20046;-78
2023/08/09 01:56:37;;;;;;;204.82;66.43;;;12.40;99.90;;;;;;4974694;28;20038;-77
2023/08/09 01:59:05;;;;;;;155.20;61.40;;;12.40;99.90;;;;;;4983805;28;20121;-78
2023/08/09 02:01:34;;;;;;;94.95;50.50;;;12.40;99.90;;;;;;4974531;28;20477;-77
2023/08/09 02:04:00;;;;;;;113.28;54.08;;;12.40;99.90;;;;;;4983456;28;21743;-78
2023/08/09 02:06:26;;;;;;;110.72;55.05;;;12.40;99.90;;;;;;4981364;28;20050;-78
2023/08/09 02:08:54;;;;;;;197.18;67.80;;;12.40;99.90;;;;;;4979284;28;20041;-77
2023/08/09 02:11:25;;;;;;;142.57;57.20;;;12.40;99.90;;;;;;5001185;28;20532;-77
2023/08/09 02:13:51;;;;;;;170.02;62.28;;;12.40;99.90;;;;;;4987409;28;20043;-78
2023/08/09 02:16:19;;;;;;;252.38;71.53;;;12.40;99.90;;;;;;4974590;28;20039;-77
2023/08/09 02:18:45;;;;;;;123.55;54.92;;;12.40;99.90;;;;;;4975136;28;20489;-78
2023/08/09 02:21:13;;;;;;;98.15;50.67;;;12.40;99.90;;;;;;4975827;28;20101;-78
2023/08/09 02:23:42;;;;;;;73.45;51.00;;;12.40;99.90;;;;;;4973472;28;20042;-77
2023/08/09 02:26:15;;;;;;;118.22;52.47;;;12.30;99.90;;;;;;4956559;28;20034;-78
2023/08/09 02:28:41;;;;;;;73.78;48.25;;;12.40;99.90;;;;;;4995355;28;20053;-77
2023/08/09 02:31:08;;;;;;;152.30;57.35;;;12.30;99.90;;;;;;4995113;28;20484;-78
2023/08/09 02:33:39;;;;;;;103.57;55.17;;;12.30;99.90;;;;;;4975750;28;20058;-77
2023/08/09 02:36:05;;;;;;;113.85;52.55;;;12.30;99.90;;;;;;4971665;28;20049;-78
2023/08/09 02:38:31;;;;;;;91.22;49.35;;;12.30;99.90;;;;;;4977757;28;20048;-78
2023/08/09 02:40:57;;;;;;;114.53;53.88;;;12.30;99.90;;;;;;4994732;28;20084;-78
2023/08/09 02:43:24;;;;;;;190.38;63.28;;;12.30;99.90;;;;;;4992965;28;20076;-77
2023/08/09 02:45:53;;;;;;;82.75;49.55;;;12.30;99.90;;;;;;4972926;28;20065;-77
2023/08/09 02:48:20;;;;;;;168.88;57.50;;;12.30;99.90;;;;;;4980559;28;20065;-78
2023/08/09 02:50:46;;;;;;;62.00;45.92;;;12.30;99.90;;;;;;4966817;28;20042;-77
2023/08/09 02:53:15;;;;;;;118.43;53.05;;;12.30;99.90;;;;;;4968131;28;20038;-77
2023/08/09 02:55:46;;;;;;;245.93;71.70;;;12.30;99.90;;;;;;4958340;28;20400;-76
2023/08/09 02:58:12;;;;;;;73.25;47.97;;;12.20;99.90;;;;;;4972386;28;20049;-78
2023/08/09 03:00:40;;;;;;;236.77;67.38;;;12.30;99.90;;;;;;4973788;28;20034;-78
2023/08/09 03:03:06;;;;;;;320.65;79.40;;;12.20;99.90;;;;;;4971678;28;20042;-77
2023/08/09 03:05:32;;;;;;;67.93;47.22;;;12.20;99.90;;;;;;4960058;28;20412;-78
2023/08/09 03:07:59;;;;;;;50.63;43.58;;;12.20;99.90;;;;;;4955521;28;20043;-78
2023/08/09 03:10:29;;;;;;;107.28;55.05;;;12.20;99.90;;;;;;4956467;28;20121;-78
2023/08/09 03:12:55;;;;;;;229.98;68.05;;;12.20;99.90;;;;;;4959173;28;20138;-78
2023/08/09 03:15:22;;;;;;;147.15;55.60;;;12.20;99.90;;;;;;4973632;28;20463;-77
2023/08/09 03:17:48;;;;;;;170.55;59.80;;;12.20;99.90;;;;;;4955889;28;20509;-77
2023/08/09 03:20:14;;;;;;;124.40;50.95;;;12.10;99.90;;;;;;4955401;28;20054;-78
2023/08/09 03:22:47;;;;;;;71.32;46.97;;;12.20;99.90;;;;;;4959768;28;20038;-78
2023/08/09 03:25:16;;;;;;;250.50;68.03;;;12.20;99.90;;;;;;4960486;28;20034;-77
2023/08/09 03:27:42;;;;;;;110.88;52.22;;;12.20;99.90;;;;;;4975043;28;20049;-78
2023/08/09 03:30:09;;;;;;;58.92;45.97;;;12.20;99.90;;;;;;4975114;28;20401;-77
2023/08/09 03:32:38;;;;;;;238.25;69.28;;;12.20;99.90;;;;;;4973210;28;20562;-78
2023/08/09 03:35:09;;;;;;;100.72;50.83;;;12.20;99.90;;;;;;4971029;28;20460;-78
2023/08/09 03:37:37;;;;;;;77.47;46.25;;;12.10;99.90;;;;;;4990315;28;20044;-78
2023/08/09 03:40:12;;;;;;;174.93;58.25;;;12.10;99.90;;;;;;4994338;28;20053;-78
2023/08/09 03:42:44;;;;;;;232.35;65.05;;;12.20;99.90;;;;;;4978904;28;20544;-77
2023/08/09 03:45:14;;;;;;;164.50;58.30;;;12.10;99.90;;;;;;4974863;28;20050;-77
2023/08/09 03:47:40;;;;;;;70.03;44.75;;;12.20;99.90;;;;;;4974384;28;20471;-77
2023/08/09 03:50:07;;;;;;;85.35;47.85;;;12.10;99.90;;;;;;4974742;28;20145;-77
2023/08/09 03:52:33;;;;;;;123.72;52.30;;;12.10;99.90;;;;;;4968021;28;20043;-77
2023/08/09 03:55:02;;;;;;;69.85;47.40;;;12.20;99.90;;;;;;4975549;28;21354;-78
2023/08/09 03:57:38;;;;;;;146.73;56.40;;;12.10;99.90;;;;;;4978029;28;20039;-77
2023/08/09 04:00:04;;;;;;;92.63;49.47;;;12.10;99.90;;;;;;4978454;28;20400;-78
2023/08/09 04:02:33;;;;;;;257.70;67.68;;;12.10;99.90;;;;;;4975342;28;20048;-78
2023/08/09 04:05:04;;;;;;;176.45;57.17;;;12.10;99.90;;;;;;4971100;28;20452;-78
2023/08/09 04:07:35;;;;;;;236.57;65.65;;;12.10;99.90;;;;;;4978564;28;20509;-77
2023/08/09 04:10:01;;;;;;;194.50;61.28;;;12.20;99.90;;;;;;4978348;28;20121;-78
2023/08/09 04:12:30;;;;;;;170.70;59.15;;;12.10;99.90;;;;;;4972360;28;20042;-78
2023/08/09 04:14:58;;;;;;;225.15;65.65;;;12.10;99.90;;;;;;4969474;28;20034;-78
2023/08/09 04:17:24;;;;;;;147.23;53.80;;;12.10;99.90;;;;;;4977601;28;20038;-78
2023/08/09 04:19:50;;;;;;;188.57;59.25;;;12.10;99.90;;;;;;4977657;28;20043;-78
2023/08/09 04:22:18;;;;;;;183.90;59.10;;;12.10;99.90;;;;;;4974935;28;20394;-77
2023/08/09 04:24:44;;;;;;;208.48;59.25;;;12.00;99.90;;;;;;4988246;28;20079;-78
2023/08/09 04:27:11;;;;;;;163.73;57.83;;;12.00;99.90;;;;;;4977412;28;20129;-78
2023/08/09 04:29:37;;;;;;;135.43;54.15;;;12.00;99.90;;;;;;4993206;28;20507;-78
2023/08/09 04:32:03;;;;;;;87.50;48.08;;;12.10;99.90;;;;;;4977089;28;20113;-77
2023/08/09 04:34:32;;;;;;;148.13;55.65;;;12.10;99.90;;;;;;4980107;28;20081;-78
2023/08/09 04:37:00;;;;;;;130.07;51.50;;;12.10;99.90;;;;;;4976374;28;20542;-78
2023/08/09 04:39:29;;;;;;;73.90;44.90;;;12.10;99.90;;;;;;4977996;28;20034;-78
2023/08/09 04:42:00;;;;;;;86.55;46.10;;;12.10;99.90;;;;;;4963690;28;20046;-76
2023/08/09 04:44:28;;;;;;;117.53;51.60;;;12.20;99.90;;;;;;4977949;28;20046;-77
2023/08/09 04:46:55;;;;;;;161.40;52.13;;;12.20;99.90;;;;;;4967387;28;20211;-78
2023/08/09 04:49:23;;;;;;;111.80;50.30;;;12.10;99.90;;;;;;4979644;28;20042;-78
2023/08/09 04:51:49;;;;;;;168.23;54.45;;;12.10;99.90;;;;;;4968465;28;20050;-77
2023/08/09 04:54:15;;;;;;;181.73;57.78;;;12.10;99.90;;;;;;4976783;28;20525;-78
2023/08/09 04:56:47;;;;;;;354.85;76.38;;;12.20;99.90;;;;;;4969102;28;20540;-77
2023/08/09 04:59:15;;;;;;;258.73;63.92;;;12.20;99.90;;;;;;4976764;28;20128;-77
2023/08/09 05:01:46;;;;;;;153.60;50.78;;;12.20;99.90;;;;;;4979227;28;20073;-77
2023/08/09 05:04:11;;;;;;;160.65;54.75;;;12.30;99.90;;;;;;4973950;28;20122;-77
2023/08/09 05:06:39;;;;;;;164.65;57.65;;;12.30;99.90;;;;;;4967663;28;20604;-77
2023/08/09 05:09:06;;;;;;;120.18;44.00;;;12.30;99.90;;;;;;4967361;28;20038;-77
2023/08/09 05:11:32;;;;;;;104.32;47.42;;;12.30;99.90;;;;;;4976324;28;20056;-77
2023/08/09 05:14:03;;;;;;;136.45;47.65;;;12.40;99.90;;;;;;4965712;28;20121;-77
2023/08/09 05:16:32;;;;;;;116.85;44.38;;;12.40;99.90;;;;;;4969028;28;20046;-77
2023/08/09 05:18:58;;;;;;;48.83;39.83;;;12.40;99.90;;;;;;4970769;28;20588;-77
2023/08/09 05:21:30;;;;;;;41.58;36.92;;;12.40;99.90;;;;;;4982298;28;20136;-77
2023/08/09 05:23:56;;;;;;;119.75;44.47;;;12.50;99.90;;;;;;4974194;28;20043;-77
2023/08/09 05:26:33;;;;;;;116.40;50.15;;;12.50;99.90;;;;;;4967966;28;20511;-77
2023/08/09 05:29:01;;;;;;;102.47;45.50;;;12.60;99.90;;;;;;4976513;28;20031;-77
2023/08/09 05:31:29;;;;;;;90.28;40.28;;;12.60;99.90;;;;;;4994574;28;20034;-78
2023/08/09 05:33:58;;;;;;;167.70;52.63;;;12.70;99.90;;;;;;4968539;28;20070;-77
2023/08/09 05:36:29;;;;;;;83.40;44.13;;;12.70;99.90;;;;;;4973872;28;20074;-77
2023/08/09 05:38:58;;;;;;;128.15;45.50;;;12.80;99.90;;;;;;4971478;28;20039;-77
2023/08/09 05:41:26;;;;;;;41.92;33.75;;;12.80;99.90;;;;;;4969202;28;20046;-77
2023/08/09 05:43:59;;;;;;;115.88;41.97;;;12.90;99.90;;;;;;4972217;28;20402;-77
2023/08/09 05:46:27;;;;;;;166.55;50.65;;;13.00;99.90;;;;;;4981112;28;20069;-77
2023/08/09 05:48:56;;;;;;;49.70;36.30;;;13.00;99.90;;;;;;4973714;28;20046;-77
2023/08/09 05:51:25;;;;;;;80.22;42.78;;;13.10;99.90;;;;;;4972805;28;20042;-77
2023/08/09 05:53:59;;;;;;;55.95;38.15;;;13.20;99.90;;;;;;4973443;28;20045;-77
2023/08/09 05:56:29;;;;;;;128.48;47.33;;;13.20;99.90;;;;;;4972265;28;20047;-77
2023/08/09 05:58:55;;;;;;;59.17;34.28;;;13.30;99.90;;;;;;4970212;28;20035;-77
2023/08/09 06:01:24;;;;;;;71.82;36.33;;;13.40;99.90;;;;;;4975603;28;20129;-77
2023/08/09 06:03:55;;;;;;;53.60;35.17;;;13.40;99.90;;;;;;4975190;28;20184;-77
2023/08/09 06:06:29;;;;;;;40.70;33.92;;;13.50;99.90;;;;;;4989347;28;20046;-77
2023/08/09 06:09:00;;;;;;;55.28;32.38;;;13.50;99.90;;;;;;4985099;28;20452;-77
2023/08/09 06:11:29;;;;;;;58.75;34.58;;;13.60;99.90;;;;;;4970346;28;20082;-79
2023/08/09 06:14:39;;;;;;;45.15;31.83;;;13.70;99.90;;;;;;4971209;28;20085;-78
2023/08/09 06:17:07;;;;;;;72.85;34.88;;;13.70;99.90;;;;;;4961499;28;20569;-77
2023/08/09 06:19:33;;;;;;;40.95;29.48;;;13.80;99.90;;;;;;4969614;28;20034;-78
2023/08/09 06:22:07;;;;;;;32.55;28.70;;;13.80;99.90;;;;;;4996728;28;20581;-77
2023/08/09 06:25:09;;;;;;;33.42;28.23;;;13.90;99.90;;;;;;4982843;28;20099;-78
2023/08/09 06:27:57;;;;;;;34.38;28.10;;;13.90;99.90;;;;;;4971486;28;20055;-77
2023/08/09 06:30:27;;;;;;;32.05;27.95;;;14.00;99.90;;;;;;4974866;28;20129;-77
2023/08/09 06:33:07;;;;;;;28.60;25.67;;;14.10;99.90;;;;;;4973595;28;20042;-77
2023/08/09 06:35:36;;;;;;;29.67;26.30;;;14.30;99.90;;;;;;4990256;28;20054;-77
2023/08/09 06:38:17;;;;;;;42.47;30.30;;;14.20;99.90;;;;;;4997655;28;20038;-76
2023/08/09 06:41:02;;;;;;;33.50;28.20;;;14.30;99.90;;;;;;4974881;28;20042;-76
2023/08/09 06:43:45;;;;;;;25.65;23.10;;;14.40;99.90;;;;;;4968989;28;20049;-76
2023/08/09 06:46:51;;;;;;;55.05;30.33;;;14.30;99.90;;;;;;4966127;28;20042;-76
2023/08/09 06:50:00;;;;;;;28.55;25.35;;;14.30;99.90;;;;;;4968518;28;20059;-76
2023/08/09 06:53:12;;;;;;;29.67;25.38;;;14.40;99.90;;;;;;4966397;28;20065;-76
2023/08/09 06:56:15;;;;;;;27.20;24.48;;;14.60;99.90;;;;;;4970337;28;20050;-77
2023/08/09 06:58:56;;;;;;;30.30;25.00;;;14.70;99.90;;;;;;4968598;28;20394;-76
2023/08/09 07:01:38;;;;;;;24.67;22.40;;;14.80;99.90;;;;;;4995764;28;20042;-76
2023/08/09 07:04:17;;;;;;;27.45;24.48;;;14.80;99.90;;;;;;4975152;28;20516;-76
2023/08/09 07:06:45;;;;;;;22.85;20.52;;;14.90;99.90;;;;;;4974870;28;20519;-75
2023/08/09 07:09:20;;;;;;;22.33;20.33;;;14.90;99.90;;;;;;4971673;28;20078;-75
2023/08/09 07:11:55;;;;;;;20.98;19.08;;;14.90;99.90;;;;;;4987039;28;20405;-75
2023/08/09 07:14:32;;;;;;;46.60;29.00;;;14.90;99.90;;;;;;4974117;28;20039;-75
2023/08/09 07:17:04;;;;;;;23.80;21.50;;;14.90;99.90;;;;;;4978037;28;20547;-75
2023/08/09 07:19:36;;;;;;;26.30;23.75;;;15.00;99.90;;;;;;4993812;28;20049;-75
2023/08/09 07:22:10;;;;;;;21.17;19.27;;;15.10;99.90;;;;;;4975597;28;20141;-75
2023/08/09 07:25:05;;;;;;;19.55;17.77;;;15.10;99.90;;;;;;4991193;28;20374;-75
2023/08/09 07:27:59;;;;;;;19.42;17.73;;;15.10;99.90;;;;;;4998939;28;20563;-75
2023/08/09 07:31:02;;;;;;;19.65;18.02;;;15.00;99.90;;;;;;4995274;28;20050;-76
2023/08/09 07:33:54;;;;;;;17.38;15.88;;;15.20;99.90;;;;;;4980689;28;20047;-76
2023/08/09 07:37:28;;;;;;;19.98;18.20;;;15.10;99.90;;;;;;4999865;28;20041;-75
2023/08/09 07:40:23;;;;;;;16.23;14.60;;;15.10;99.90;;;;;;5014233;28;20042;-76
2023/08/09 07:43:07;;;;;;;16.52;15.23;;;15.10;99.90;;;;;;4982372;28;20074;-76
2023/08/09 07:46:03;;;;;;;20.95;19.15;;;15.10;99.90;;;;;;5005104;28;20042;-76
2023/08/09 07:48:53;;;;;;;16.63;15.27;;;15.10;99.90;;;;;;5003321;28;20305;-76
2023/08/09 07:51:57;;;;;;;16.60;15.23;;;15.20;99.90;;;;;;4972789;28;20450;-76
2023/08/09 07:58:26;;;;;;;18.33;16.67;;;15.20;99.90;;;;;;4974329;28;20050;-76
2023/08/09 08:01:16;;;;;;;15.77;14.38;;;15.20;99.90;;;;;;4973359;28;20042;-76
2023/08/09 08:04:01;;;;;;;16.42;14.95;;;15.30;99.90;;;;;;4968503;28;20075;-75
2023/08/09 08:10:04;;;;;;;17.02;15.30;;;15.40;99.90;;;;;;4902863;29;20055;-76
2023/08/09 08:12:53;;;;;;;14.65;13.45;;;15.50;99.90;;;;;;4934138;28;20042;-76
2023/08/09 08:15:50;;;;;;;17.93;16.37;;;15.60;99.90;;;;;;4975216;28;20069;-76
2023/08/09 08:18:36;;;;;;;17.90;16.40;;;15.70;99.90;;;;;;4994981;28;20038;-76
2023/08/09 08:21:22;;;;;;;14.20;12.98;;;15.90;99.90;;;;;;4995059;28;20407;-76
2023/08/09 08:24:24;;;;;;;16.98;15.57;;;16.20;99.90;;;;;;4982811;28;20057;-76
2023/08/09 08:27:36;;;;;;;16.25;14.75;;;16.50;99.90;;;;;;4994805;28;20050;-76
2023/08/09 08:30:36;;;;;;;12.02;11.00;;;17.70;99.90;;;;;;4987179;28;20057;-77
2023/08/09 08:33:48;;;;;;;10.43;9.45;;;18.70;99.90;;;;;;4966773;28;20055;-77
2023/08/09 08:36:53;;;;;;;7.80;7.00;;;19.70;99.90;;;;;;4980122;28;20493;-76
2023/08/09 08:39:59;;;;;;;6.65;5.93;;;20.80;99.90;;;;;;4976890;28;20501;-77
2023/08/09 08:42:54;;;;;;;7.97;6.70;;;21.50;99.90;;;;;;4975911;28;20062;-77
2023/08/09 08:46:08;;;;;;;6.57;5.18;;;22.20;99.90;;;;;;4970079;28;20050;-77
2023/08/09 08:49:25;;;;;;;5.25;4.68;;;22.90;99.90;;;;;;4985822;28;20500;-77
2023/08/09 08:52:08;;;;;;;5.18;4.68;;;23.40;99.90;;;;;;4972661;28;20096;-77
2023/08/09 08:55:37;;;;;;;5.43;4.93;;;23.70;99.90;;;;;;4976223;28;20062;-77
2023/08/09 08:58:18;;;;;;;4.85;4.10;;;24.20;99.90;;;;;;4983234;28;20081;-78
2023/08/09 09:01:26;;;;;;;5.55;4.03;;;24.40;99.90;;;;;;5004063;28;20046;-78
2023/08/09 09:04:39;;;;;;;;;;;;;;;;;;;;;
2023/08/09 09:10:37;;;;;;;4.72;3.22;;;25.00;99.90;;;;;;4974086;28;20088;-78
2023/08/09 09:13:49;;;;;;;3.92;2.40;;;25.40;99.90;;;;;;4974029;28;20471;-78
2023/08/09 09:17:04;;;;;;;3.72;2.28;;;25.60;99.90;;;;;;4991108;28;20046;-78
2023/08/09 09:19:52;;;;;;;4.82;2.33;;;25.70;99.90;;;;;;4996525;28;20527;-78
2023/08/09 09:22:39;;;;;;;3.03;2.17;;;25.10;99.90;;;;;;4983911;28;20555;-78
2023/08/09 09:28:22;;;;;;;3.70;2.03;;;24.50;99.90;;;;;;4942082;28;20038;-78
2023/08/09 09:31:26;;;;;;;3.70;2.03;;;24.20;99.90;;;;;;4977288;28;20408;-78
2023/08/09 09:34:18;;;;;;;3.78;1.52;;;24.00;99.90;;;;;;4984260;28;20049;-78
2023/08/09 09:37:28;;;;;;;;;;;;;;;;;;;;;
2023/08/09 09:40:57;;;;;;;1.88;0.80;;;23.90;99.90;;;;;;4993924;28;20165;-78
2023/08/09 09:43:53;;;;;;;1.23;0.65;;;23.80;99.90;;;;;;4996894;28;20053;-78
2023/08/09 09:47:18;;;;;;;;;;;23.50;99.90;;;;;;4962088;28;20120;-79
2023/08/09 09:50:23;;;;;;;2.92;1.08;;;23.00;99.90;;;;;;4951712;28;19977;-77
2023/08/09 09:53:24;;;;;;;;;;;;;;;;;;;;;
2023/08/09 09:56:32;;;;;;;;;;;;;;;;;;;;;
2023/08/09 09:59:33;;;;;;;2.13;0.80;;;23.00;99.90;;;;;;4994429;28;20042;-77
2023/08/09 10:02:24;;;;;;;2.83;0.98;;;22.90;99.90;;;;;;4971881;28;20169;-78
2023/08/09 10:05:42;;;;;;;1.88;1.48;;;22.70;99.90;;;;;;4983848;28;20090;-77
2023/08/09 10:08:37;;;;;;;1.75;0.85;;;22.60;99.90;;;;;;4975336;28;20097;-77
2023/08/09 10:11:17;;;;;;;2.80;1.13;;;22.40;99.90;;;;;;4986227;28;20050;-79
2023/08/09 10:13:59;;;;;;;1.65;1.00;;;22.30;99.90;;;;;;4970976;28;20046;-77
2023/08/09 10:16:45;;;;;;;2.20;1.00;;;22.10;99.90;;;;;;4984025;28;20130;-80
2023/08/09 10:20:08;;;;;;;2.83;1.23;;;22.10;99.90;;;;;;4959923;28;20068;-80
2023/08/09 10:27:11;;;;;;;3.20;1.20;;;21.80;99.90;;;;;;5127402;23;20453;-79
2023/08/09 10:30:17;;;;;;;2.40;1.20;;;21.70;99.90;;;;;;4956618;28;20054;-79
2023/08/09 10:33:44;;;;;;;2.13;1.10;;;21.70;99.90;;;;;;4940861;28;20108;-79
2023/08/09 10:36:53;;;;;;;2.15;1.50;;;21.80;99.90;;;;;;5017279;23;20079;-79
2023/08/09 10:40:32;;;;;;;;;;;;;;;;;;;;;
2023/08/09 10:43:38;;;;;;;3.33;1.67;;;21.80;99.90;;;;;;4960168;28;20042;-78
2023/08/09 10:46:23;;;;;;;5.03;1.95;;;21.90;99.90;;;;;;4937158;28;20039;-77
2023/08/09 10:49:26;;;;;;;3.38;1.52;;;21.80;99.90;;;;;;4936207;29;20504;-78
2023/08/09 10:52:27;;;;;;;2.97;1.40;;;21.80;99.90;;;;;;4952751;28;20125;-77
2023/08/09 10:56:08;;;;;;;3.35;1.40;;;21.80;99.90;;;;;;4918921;28;20137;-77
2023/08/09 10:59:30;;;;;;;3.72;1.70;;;21.70;99.90;;;;;;4944390;28;20054;-77
2023/08/09 11:02:37;;;;;;;2.65;1.63;;;21.70;99.90;;;;;;4899979;29;20510;-77
2023/08/09 11:05:54;;;;;;;3.97;2.03;;;21.80;99.90;;;;;;4952357;28;20158;-77
2023/08/09 11:08:27;;;;;;;3.22;1.90;;;21.90;99.90;;;;;;4956111;28;20042;-77
2023/08/09 11:11:23;;;;;;;3.08;1.60;;;21.90;99.90;;;;;;4949234;28;20074;-77
2023/08/09 11:14:16;;;;;;;2.47;1.67;;;22.00;99.90;;;;;;4941814;29;20063;-77
2023/08/09 11:16:58;;;;;;;3.00;2.00;;;21.90;99.90;;;;;;4920937;29;20129;-77
2023/08/09 11:19:50;;;;;;;3.03;1.65;;;21.80;99.90;;;;;;4950148;28;20466;-77
2023/08/09 11:22:41;;;;;;;4.25;2.13;;;21.80;99.90;;;;;;4941854;29;20047;-76
2023/08/09 11:25:13;;;;;;;5.45;2.10;;;21.80;99.90;;;;;;4968178;23;20407;-77
2023/08/09 11:28:12;;;;;;;2.58;1.30;;;21.80;99.90;;;;;;4958092;28;20057;-77
2023/08/09 11:30:59;;;;;;;2.28;1.55;;;21.90;99.90;;;;;;4950265;28;20051;-77
2023/08/09 11:33:33;;;;;;;4.60;1.80;;;22.00;99.90;;;;;;4951014;28;20047;-77
2023/08/09 11:36:48;;;;;;;2.17;1.48;;;22.10;99.90;;;;;;4961404;28;20051;-77
2023/08/09 11:39:40;;;;;;;3.78;1.75;;;22.20;99.90;;;;;;4914033;29;20055;-77
2023/08/09 11:42:37;;;;;;;3.53;1.58;;;22.30;99.90;;;;;;4931200;29;20051;-77
2023/08/09 11:45:14;;;;;;;3.28;2.00;;;22.40;99.90;;;;;;4932286;29;20058;-77
2023/08/09 11:48:01;;;;;;;2.92;1.88;;;22.30;99.90;;;;;;4939382;28;20042;-77
2023/08/09 11:50:54;;;;;;;4.25;1.63;;;22.30;99.90;;;;;;4930329;29;20457;-77
2023/08/09 11:53:43;;;;;;;2.80;1.60;;;22.20;99.90;;;;;;4928692;29;20499;-77
2023/08/09 11:56:51;;;;;;;3.08;1.63;;;22.10;99.90;;;;;;4932237;29;20082;-77
2023/08/09 12:07:13;;;;;;;4.82;1.90;;;22.20;99.90;;;;;;4908790;29;20415;-77
2023/08/09 12:10:14;;;;;;;3.78;1.67;;;22.30;99.90;;;;;;4861011;29;20149;-77
2023/08/09 12:12:54;;;;;;;2.92;1.45;;;22.50;99.90;;;;;;4879778;29;20506;-77
2023/08/09 12:15:42;;;;;;;3.05;1.70;;;22.60;99.90;;;;;;4928368;29;20051;-78
2023/08/09 12:18:46;;;;;;;2.65;1.63;;;22.60;99.90;;;;;;4932154;29;20043;-78
2023/08/09 12:21:38;;;;;;;5.18;1.60;;;22.60;99.90;;;;;;4934589;29;20077;-78
2023/08/09 12:24:23;;;;;;;3.15;1.45;;;22.50;99.90;;;;;;4939419;29;20050;-78
2023/08/09 12:27:04;;;;;;;2.28;1.58;;;22.20;99.90;;;;;;4936441;29;20055;-78
2023/08/09 12:30:08;;;;;;;3.85;1.58;;;22.20;99.90;;;;;;4933581;29;20070;-78
2023/08/09 12:32:44;;;;;;;3.63;1.50;;;22.30;99.90;;;;;;4923379;29;20086;-77
2023/08/09 12:35:25;;;;;;;1.90;1.20;;;22.60;99.90;;;;;;4942064;29;20046;-79
2023/08/09 12:38:07;;;;;;;2.85;1.40;;;23.20;99.90;;;;;;4927873;29;20090;-78
2023/08/09 12:40:59;;;;;;;3.28;1.20;;;24.00;99.90;;;;;;4937918;29;20138;-78
2023/08/09 12:44:05;;;;;;;4.45;1.55;;;24.90;99.90;;;;;;4936718;29;20044;-78
2023/08/09 12:47:37;;;;;;;3.22;1.50;;;25.80;99.90;;;;;;4923352;29;20044;-78
2023/08/09 12:50:49;;;;;;;4.45;1.50;;;25.90;98.40;;;;;;4868420;29;20049;-78
2023/08/09 12:53:55;;;;;;;1.77;1.30;;;25.60;99.90;;;;;;4863540;29;20193;-78
2023/08/09 12:56:57;;;;;;;3.30;1.30;;;25.10;99.90;;;;;;4847475;29;20041;-78
2023/08/09 13:00:40;;;;;;;3.15;1.40;;;25.20;99.90;;;;;;4822273;29;20049;-78
2023/08/09 13:06:29;;;;;;;3.13;1.55;;;24.80;99.90;;;;;;5021501;23;20074;-78
2023/08/09 13:09:13;;;;;;;4.13;1.60;;;24.20;99.90;;;;;;4956036;28;20047;-78
2023/08/09 13:12:24;;;;;;;6.45;2.00;;;23.60;99.90;;;;;;4949954;28;20047;-78
2023/08/09 13:15:40;;;;;;;5.35;1.70;;;23.00;99.90;;;;;;4980785;28;20042;-78
2023/08/09 13:18:16;;;;;;;4.80;1.90;;;22.30;99.90;;;;;;4937722;28;20054;-78
2023/08/09 13:24:16;;;;;;;3.17;1.50;;;22.50;99.90;;;;;;4958682;28;20126;-79
2023/08/09 13:27:46;;;;;;;3.38;1.30;;;23.50;99.90;;;;;;4975954;28;20046;-79
2023/08/09 13:34:49;;;;;;;6.30;1.70;;;23.70;99.90;;;;;;4954615;29;20513;-79
2023/08/09 13:37:39;;;;;;;4.10;1.42;;;23.20;99.90;;;;;;4928002;29;20130;-79
2023/08/09 13:40:20;;;;;;;4.03;1.50;;;22.70;99.90;;;;;;4945708;28;20046;-79
2023/08/09 13:46:40;;;;;;;3.78;1.40;;;23.20;99.90;;;;;;4957801;28;20046;-80
2023/08/09 13:49:19;;;;;;;3.00;1.08;;;24.30;99.90;;;;;;4956958;29;20071;-81
2023/08/09 13:51:50;;;;;;;4.70;1.40;;;24.70;85.50;;;;;;4964181;28;20078;-79
2023/08/09 13:54:16;;;;;;;4.53;1.45;;;24.90;96.90;;;;;;4978654;28;20038;-81
2023/08/09 13:56:42;;;;;;;5.22;1.83;;;25.10;88.00;;;;;;4966597;28;20332;-80
2023/08/09 13:59:16;;;;;;;5.20;1.40;;;25.30;81.40;;;;;;4964813;28;20070;-80
2023/08/09 14:01:45;;;;;;;3.13;1.20;;;25.40;92.10;;;;;;4965768;28;20054;-80
2023/08/09 14:04:11;;;;;;;3.38;1.50;;;25.40;80.70;;;;;;4964220;29;20040;-80
2023/08/09 14:06:37;;;;;;;4.07;2.08;;;25.60;80.40;;;;;;4947574;29;20049;-80
2023/08/09 14:09:08;;;;;;;5.72;3.60;;;25.50;74.80;;;;;;4958982;28;20516;-79
2023/08/09 14:11:38;;;;;;;5.82;1.60;;;25.40;75.10;;;;;;4951708;28;20035;-80
2023/08/09 14:14:04;;;;;;;3.13;1.58;;;25.40;74.30;;;;;;4961156;28;20078;-79
2023/08/09 14:16:43;;;;;;;3.20;1.38;;;25.40;73.80;;;;;;4951989;28;20051;-79
2023/08/09 14:19:15;;;;;;;2.63;1.30;;;25.40;80.10;;;;;;4949595;29;20516;-79
2023/08/09 14:21:43;;;;;;;8.48;1.52;;;25.60;81.50;;;;;;4939420;28;20046;-79
2023/08/09 14:24:21;;;;;;;4.22;1.15;;;25.70;80.00;;;;;;4953969;28;20413;-80
2023/08/09 14:26:50;;;;;;;4.05;1.45;;;25.80;76.00;;;;;;4952454;28;20049;-80